Time;durP1;ratioP1;P1;durP2;ratioP2;P2;SDS_P1;SDS_P2;PMS_P1;PMS_P2;Temp;Humidity;BMP_temperature;BMP_pressure;BME280_temperature;BME280_humidity;BME280_pressure;Samples;Min_cycle;Max_cycle;Signal;HPM_P1;HPM_P2
2022/05/29 00:01:23;;;;;;;0.10;0.10;;;9.20;99.90;;;;;;5072177;28;20201;-58
2022/05/29 00:03:51;;;;;;;0.20;0.20;;;9.20;99.90;;;;;;5072117;28;20348;-59
2022/05/29 00:06:18;;;;;;;0.00;0.00;;;9.10;99.90;;;;;;5072110;28;20199;-59
2022/05/29 00:08:46;;;;;;;0.10;0.10;;;9.10;99.90;;;;;;5071657;28;20195;-59
2022/05/29 00:11:14;;;;;;;0.20;0.20;;;9.10;99.90;;;;;;5072150;28;20198;-59
2022/05/29 00:13:42;;;;;;;0.00;0.00;;;9.00;99.90;;;;;;5071757;28;20231;-58
2022/05/29 00:16:09;;;;;;;10.40;0.57;;;9.00;99.90;;;;;;5072080;28;20191;-58
2022/05/29 00:18:38;;;;;;;0.40;0.40;;;9.00;99.90;;;;;;5071998;28;20308;-58
2022/05/29 00:21:07;;;;;;;0.23;0.23;;;9.00;99.90;;;;;;5071842;28;20286;-59
2022/05/29 00:23:40;;;;;;;0.00;0.00;;;8.90;99.90;;;;;;5071612;28;20259;-58
2022/05/29 00:26:07;;;;;;;0.00;0.00;;;8.90;99.90;;;;;;5071686;28;20192;-58
2022/05/29 00:28:34;;;;;;;0.00;0.00;;;8.90;99.90;;;;;;5071654;28;20671;-58
2022/05/29 00:31:01;;;;;;;0.00;0.00;;;8.90;99.90;;;;;;5071950;28;20246;-58
2022/05/29 00:33:28;;;;;;;0.30;0.30;;;8.90;99.90;;;;;;5071920;28;20217;-58
2022/05/29 00:35:56;;;;;;;0.00;0.00;;;8.90;99.90;;;;;;5072346;28;20244;-58
2022/05/29 00:38:23;;;;;;;0.10;0.10;;;8.80;99.90;;;;;;5073062;28;20260;-58
2022/05/29 00:40:59;;;;;;;0.00;0.00;;;8.80;99.90;;;;;;5075040;28;20205;-58
2022/05/29 00:43:26;;;;;;;0.17;0.17;;;8.80;99.90;;;;;;5075137;28;20202;-58
2022/05/29 00:45:57;;;;;;;0.07;0.07;;;8.60;99.90;;;;;;5075298;28;20198;-58
2022/05/29 00:48:25;;;;;;;0.00;0.00;;;8.70;99.90;;;;;;5075313;28;20711;-58
2022/05/29 00:50:55;;;;;;;0.30;0.23;;;8.70;99.90;;;;;;5075190;28;20204;-58
2022/05/29 00:53:24;;;;;;;0.00;0.00;;;8.60;99.90;;;;;;5074910;28;20186;-59
2022/05/29 00:55:58;;;;;;;0.30;0.30;;;8.50;99.90;;;;;;5074157;28;20190;-58
2022/05/29 00:58:26;;;;;;;0.10;0.10;;;8.50;99.90;;;;;;5071998;28;20281;-58
2022/05/29 01:00:55;;;;;;;0.00;0.00;;;8.40;99.90;;;;;;5074521;28;20193;-59
2022/05/29 01:03:23;;;;;;;0.00;0.00;;;8.40;99.90;;;;;;5074097;28;20597;-59
2022/05/29 01:05:49;;;;;;;0.00;0.00;;;8.40;99.90;;;;;;5074480;28;20266;-58
2022/05/29 01:08:20;;;;;;;0.00;0.00;;;8.40;99.90;;;;;;5074928;28;20201;-59
2022/05/29 01:11:04;;;;;;;0.10;0.10;;;8.30;99.90;;;;;;5074887;28;20218;-58
2022/05/29 01:13:42;;;;;;;0.00;0.00;;;8.30;99.90;;;;;;5074251;28;20185;-58
2022/05/29 01:16:18;;;;;;;0.00;0.00;;;8.30;99.90;;;;;;5074600;28;20238;-58
2022/05/29 01:18:51;;;;;;;0.10;0.10;;;8.30;99.90;;;;;;5074449;28;20578;-58
2022/05/29 01:21:34;;;;;;;0.00;0.00;;;8.30;99.90;;;;;;5074670;28;20255;-58
2022/05/29 01:24:22;;;;;;;0.00;0.00;;;8.20;99.90;;;;;;5074229;28;20211;-58
2022/05/29 01:27:20;;;;;;;0.00;0.00;;;8.20;99.90;;;;;;5074566;28;20226;-58
2022/05/29 01:29:57;;;;;;;0.40;0.40;;;8.20;99.90;;;;;;5073183;28;20208;-58
2022/05/29 01:32:35;;;;;;;0.10;0.10;;;8.20;99.90;;;;;;5074101;28;20182;-58
2022/05/29 01:35:09;;;;;;;0.00;0.00;;;8.20;99.90;;;;;;5074369;28;20181;-58
2022/05/29 01:37:43;;;;;;;0.20;0.20;;;8.10;99.90;;;;;;5073955;28;20176;-59
2022/05/29 01:40:19;;;;;;;0.07;0.07;;;8.10;99.90;;;;;;5073989;28;20198;-58
2022/05/29 01:42:51;;;;;;;0.10;0.10;;;8.10;99.90;;;;;;5073795;28;20185;-58
2022/05/29 01:45:30;;;;;;;0.10;0.10;;;8.10;99.90;;;;;;5073069;28;20205;-59
2022/05/29 01:48:03;;;;;;;0.00;0.00;;;8.10;99.90;;;;;;5072210;28;20617;-58
2022/05/29 01:50:36;;;;;;;0.00;0.00;;;8.10;99.90;;;;;;5072569;28;20553;-58
2022/05/29 01:53:12;;;;;;;0.00;0.00;;;8.10;99.90;;;;;;5074033;28;20190;-58
2022/05/29 01:55:44;;;;;;;0.00;0.00;;;8.20;99.90;;;;;;5073881;28;20180;-59
2022/05/29 01:58:14;;;;;;;0.00;0.00;;;8.20;99.90;;;;;;5073941;28;20582;-58
2022/05/29 02:00:44;;;;;;;0.10;0.10;;;8.30;99.90;;;;;;5073562;28;20194;-58
2022/05/29 02:03:16;;;;;;;0.10;0.10;;;8.30;99.90;;;;;;5073703;28;20511;-58
2022/05/29 02:05:47;;;;;;;0.10;0.10;;;8.40;99.90;;;;;;5073595;28;20193;-59
2022/05/29 02:08:18;;;;;;;0.20;0.20;;;8.50;99.90;;;;;;5074998;28;20181;-59
2022/05/29 02:10:48;;;;;;;0.00;0.00;;;8.60;99.90;;;;;;5073478;28;20194;-58
2022/05/29 02:13:21;;;;;;;0.00;0.00;;;8.60;99.90;;;;;;5073331;28;20667;-58
2022/05/29 02:15:54;;;;;;;0.07;0.07;;;8.70;99.90;;;;;;5073283;28;20653;-58
2022/05/29 02:18:26;;;;;;;0.00;0.00;;;8.80;99.90;;;;;;5073533;28;20185;-58
2022/05/29 02:20:57;;;;;;;0.00;0.00;;;8.80;99.90;;;;;;5073459;28;20200;-58
2022/05/29 02:23:31;;;;;;;0.10;0.10;;;8.90;99.90;;;;;;5073292;28;20183;-58
2022/05/29 02:26:00;;;;;;;0.10;0.10;;;8.90;99.90;;;;;;5073414;28;20189;-59
2022/05/29 02:28:34;;;;;;;0.00;0.00;;;9.00;99.90;;;;;;5073337;28;20247;-58
2022/05/29 02:31:16;;;;;;;0.10;0.10;;;9.00;99.90;;;;;;5073286;28;20204;-58
2022/05/29 02:33:56;;;;;;;0.10;0.10;;;9.10;99.90;;;;;;5073101;28;20293;-58
2022/05/29 02:36:30;;;;;;;0.20;0.20;;;9.10;99.90;;;;;;5073128;28;20261;-58
2022/05/29 02:39:10;;;;;;;0.00;0.00;;;9.10;99.90;;;;;;5073232;28;20188;-58
2022/05/29 02:41:48;;;;;;;0.20;0.20;;;9.10;99.90;;;;;;5072711;28;20665;-58
2022/05/29 02:44:24;;;;;;;0.10;0.10;;;9.00;99.90;;;;;;5072871;28;20194;-58
2022/05/29 02:46:58;;;;;;;0.20;0.20;;;9.00;99.90;;;;;;5073013;28;20190;-58
2022/05/29 02:49:31;;;;;;;0.00;0.00;;;9.00;99.90;;;;;;5072993;28;20218;-58
2022/05/29 02:52:02;;;;;;;0.00;0.00;;;9.00;99.90;;;;;;5072859;28;20191;-59
2022/05/29 02:54:31;;;;;;;0.40;0.40;;;9.00;99.90;;;;;;5072827;28;20187;-59
2022/05/29 02:57:00;;;;;;;0.23;0.23;;;8.90;99.90;;;;;;5072522;28;20660;-58
2022/05/29 02:59:30;;;;;;;0.00;0.00;;;8.90;99.90;;;;;;5072489;28;20261;-58
2022/05/29 03:02:04;;;;;;;0.00;0.00;;;9.00;99.90;;;;;;5072305;28;20215;-58
2022/05/29 03:04:36;;;;;;;0.00;0.00;;;9.00;99.90;;;;;;5072643;28;20291;-59
2022/05/29 03:07:11;;;;;;;0.00;0.00;;;9.00;99.90;;;;;;5072824;28;20183;-58
2022/05/29 03:09:50;;;;;;;0.20;0.20;;;9.10;99.90;;;;;;5072715;28;20182;-59
2022/05/29 03:12:36;;;;;;;0.00;0.00;;;9.10;99.90;;;;;;5072397;28;20201;-59
2022/05/29 03:15:19;;;;;;;0.00;0.00;;;9.10;99.90;;;;;;5072145;28;20574;-58
2022/05/29 03:17:56;;;;;;;0.00;0.00;;;9.20;99.90;;;;;;5072613;28;20186;-59
2022/05/29 03:20:35;;;;;;;0.10;0.10;;;9.20;99.90;;;;;;5072629;28;20187;-58
2022/05/29 03:23:17;;;;;;;0.20;0.20;;;9.20;99.90;;;;;;5072606;28;20179;-58
2022/05/29 03:25:47;;;;;;;0.00;0.00;;;9.20;99.90;;;;;;5072497;28;20264;-58
2022/05/29 03:28:19;;;;;;;0.10;0.10;;;9.20;99.90;;;;;;5072210;28;20622;-58
2022/05/29 03:30:49;;;;;;;0.33;0.33;;;9.30;99.90;;;;;;5072518;28;20183;-58
2022/05/29 03:33:18;;;;;;;0.10;0.10;;;9.30;99.90;;;;;;5072102;28;20965;-58
2022/05/29 03:36:03;;;;;;;0.83;0.73;;;9.20;99.90;;;;;;5072421;28;20202;-58
2022/05/29 03:38:30;;;;;;;1.03;1.03;;;9.20;99.90;;;;;;5072457;28;20281;-58
2022/05/29 03:40:57;;;;;;;0.57;0.57;;;9.30;99.90;;;;;;5072344;28;20303;-58
2022/05/29 03:43:24;;;;;;;0.10;0.10;;;9.30;99.90;;;;;;5072205;28;20264;-58
2022/05/29 03:45:51;;;;;;;0.27;0.27;;;9.40;99.90;;;;;;5072279;28;20218;-58
2022/05/29 03:48:19;;;;;;;0.00;0.00;;;9.30;99.90;;;;;;5072309;28;20256;-59
2022/05/29 03:50:46;;;;;;;0.33;0.33;;;9.40;99.90;;;;;;5072165;28;20240;-59
2022/05/29 03:53:13;;;;;;;0.30;0.30;;;9.40;99.90;;;;;;5072231;28;20207;-59
2022/05/29 03:55:40;;;;;;;0.20;0.20;;;9.50;99.90;;;;;;5072199;28;20194;-59
2022/05/29 03:58:07;;;;;;;0.07;0.07;;;9.50;99.90;;;;;;5072179;28;20225;-58
2022/05/29 04:00:34;;;;;;;4.00;0.17;;;9.60;99.90;;;;;;5072214;28;20198;-58
2022/05/29 04:03:02;;;;;;;0.00;0.00;;;9.60;99.90;;;;;;5072052;28;20187;-58
2022/05/29 04:05:31;;;;;;;0.00;0.00;;;9.70;99.90;;;;;;5072036;28;20225;-58
2022/05/29 04:13:29;;;;;;;0.10;0.10;;;9.80;99.90;;;;;;5073438;28;20182;-58
2022/05/29 04:15:56;;;;;;;0.50;0.50;;;9.80;99.90;;;;;;5075977;28;20382;-58
2022/05/29 04:18:23;;;;;;;0.10;0.10;;;9.80;99.90;;;;;;5077352;28;20652;-59
2022/05/29 04:20:53;;;;;;;0.57;0.57;;;9.90;99.90;;;;;;5077986;28;20615;-58
2022/05/29 04:23:20;;;;;;;0.10;0.10;;;9.90;99.90;;;;;;5075759;28;20257;-59
2022/05/29 04:25:47;;;;;;;0.50;0.50;;;10.00;99.90;;;;;;5075606;28;20265;-59
2022/05/29 04:28:15;;;;;;;0.00;0.00;;;10.00;99.90;;;;;;5075588;28;20566;-59
2022/05/29 04:30:42;;;;;;;0.77;0.57;;;10.10;99.90;;;;;;5075524;28;20596;-58
2022/05/29 04:33:09;;;;;;;0.00;0.00;;;10.10;99.90;;;;;;5075421;28;20229;-59
2022/05/29 04:35:39;;;;;;;0.00;0.00;;;10.10;99.90;;;;;;5075327;28;20219;-59
2022/05/29 04:38:08;;;;;;;0.00;0.00;;;10.20;99.90;;;;;;5075428;28;20195;-58
2022/05/29 04:40:37;;;;;;;1.27;0.97;;;10.20;99.90;;;;;;5075361;28;20191;-58
2022/05/29 04:43:04;;;;;;;0.07;0.07;;;10.30;99.90;;;;;;5075159;28;20222;-58
2022/05/29 04:45:31;;;;;;;0.10;0.10;;;10.30;99.90;;;;;;5075237;28;20219;-58
2022/05/29 04:47:58;;;;;;;0.13;0.13;;;10.40;99.90;;;;;;5074974;28;20210;-58
2022/05/29 04:50:25;;;;;;;0.53;0.53;;;10.40;99.90;;;;;;5075185;28;20194;-59
2022/05/29 04:52:52;;;;;;;0.00;0.00;;;10.40;99.90;;;;;;5075191;28;20202;-59
2022/05/29 04:55:21;;;;;;;0.10;0.10;;;10.50;99.90;;;;;;5075095;28;20190;-59
2022/05/29 04:57:48;;;;;;;0.53;0.53;;;10.40;99.90;;;;;;5075149;28;20209;-58
2022/05/29 05:00:16;;;;;;;0.00;0.00;;;10.40;99.90;;;;;;5075065;28;20660;-58
2022/05/29 05:02:43;;;;;;;0.20;0.20;;;10.50;99.90;;;;;;5074700;28;20669;-58
2022/05/29 05:05:11;;;;;;;0.20;0.20;;;10.40;99.90;;;;;;5074570;28;20583;-58
2022/05/29 05:07:39;;;;;;;0.00;0.00;;;10.40;99.90;;;;;;5074957;28;20644;-58
2022/05/29 05:10:10;;;;;;;0.10;0.10;;;10.50;99.90;;;;;;5074705;28;20253;-58
2022/05/29 05:12:38;;;;;;;0.00;0.00;;;10.60;99.90;;;;;;5074863;28;20341;-58
2022/05/29 05:15:07;;;;;;;0.00;0.00;;;10.60;99.90;;;;;;5074301;28;20221;-59
2022/05/29 05:17:34;;;;;;;0.10;0.10;;;10.70;99.90;;;;;;5074851;28;20198;-58
2022/05/29 05:20:01;;;;;;;0.10;0.10;;;10.60;99.90;;;;;;5074697;28;20257;-58
2022/05/29 05:22:28;;;;;;;0.07;0.07;;;10.60;99.90;;;;;;5074770;28;20616;-58
2022/05/29 05:24:55;;;;;;;0.20;0.20;;;10.60;99.90;;;;;;5074428;28;20222;-58
2022/05/29 05:27:22;;;;;;;0.23;0.23;;;10.60;99.90;;;;;;5074621;28;20208;-58
2022/05/29 05:29:50;;;;;;;0.20;0.20;;;10.60;99.90;;;;;;5074313;28;20722;-58
2022/05/29 05:32:17;;;;;;;0.30;0.30;;;10.50;99.90;;;;;;5074577;28;20195;-58
2022/05/29 05:34:44;;;;;;;0.20;0.20;;;10.50;99.90;;;;;;5074502;28;20197;-58
2022/05/29 05:37:12;;;;;;;0.23;0.23;;;10.40;99.90;;;;;;5074467;28;20529;-59
2022/05/29 05:39:39;;;;;;;0.20;0.20;;;10.50;99.90;;;;;;5074023;28;20207;-58
2022/05/29 05:42:07;;;;;;;0.00;0.00;;;10.40;99.90;;;;;;5074467;28;20195;-63
2022/05/29 05:44:34;;;;;;;2.50;1.93;;;10.50;99.90;;;;;;5074071;28;20199;-59
2022/05/29 05:47:02;;;;;;;0.07;0.07;;;10.50;99.90;;;;;;5074122;28;20246;-59
2022/05/29 05:49:29;;;;;;;0.07;0.07;;;10.50;99.90;;;;;;5073744;28;20217;-59
2022/05/29 05:51:59;;;;;;;0.00;0.00;;;10.50;99.90;;;;;;5073943;28;20197;-59
2022/05/29 05:54:29;;;;;;;0.00;0.00;;;10.50;99.90;;;;;;5073960;28;20192;-59
2022/05/29 05:56:56;;;;;;;0.20;0.20;;;10.60;99.90;;;;;;5073984;28;20196;-59
2022/05/29 05:59:23;;;;;;;0.03;0.03;;;10.60;99.90;;;;;;5073904;28;20650;-59
2022/05/29 06:01:50;;;;;;;0.00;0.00;;;10.60;99.90;;;;;;5074063;28;20201;-59
2022/05/29 06:04:18;;;;;;;5.60;1.20;;;10.50;99.90;;;;;;5073993;28;20235;-58
2022/05/29 06:06:45;;;;;;;0.10;0.10;;;10.50;99.90;;;;;;5073463;28;20706;-59
2022/05/29 06:09:13;;;;;;;0.10;0.10;;;10.50;99.90;;;;;;5073799;28;20201;-59
2022/05/29 06:11:40;;;;;;;0.30;0.13;;;10.50;99.90;;;;;;5073531;28;20688;-59
2022/05/29 06:14:08;;;;;;;0.20;0.20;;;10.50;99.90;;;;;;5073192;28;20243;-59
2022/05/29 06:16:35;;;;;;;0.10;0.10;;;10.50;99.90;;;;;;5074166;28;20290;-61
2022/05/29 06:19:04;;;;;;;0.20;0.20;;;10.70;99.90;;;;;;5074701;28;20199;-61
2022/05/29 06:21:33;;;;;;;0.13;0.13;;;10.80;99.90;;;;;;5074792;28;20205;-60
2022/05/29 06:24:00;;;;;;;0.33;0.33;;;10.80;99.90;;;;;;5074383;28;20220;-60
2022/05/29 06:26:27;;;;;;;0.10;0.10;;;10.80;99.90;;;;;;5074193;28;20648;-62
2022/05/29 06:28:54;;;;;;;0.00;0.00;;;10.80;99.90;;;;;;5073368;28;20196;-60
2022/05/29 06:31:21;;;;;;;2.73;0.87;;;10.90;99.90;;;;;;5073328;28;20199;-60
2022/05/29 06:33:48;;;;;;;0.73;0.73;;;10.70;99.90;;;;;;5073172;28;20204;-59
2022/05/29 06:36:17;;;;;;;0.07;0.07;;;10.80;99.90;;;;;;5072407;28;20195;-60
2022/05/29 06:38:46;;;;;;;0.20;0.20;;;11.00;99.90;;;;;;5073113;28;20200;-60
2022/05/29 06:41:15;;;;;;;0.47;0.47;;;11.10;99.90;;;;;;5073140;28;20211;-59
2022/05/29 06:43:42;;;;;;;0.30;0.20;;;11.10;99.90;;;;;;5072904;28;20191;-60
2022/05/29 06:46:10;;;;;;;1.03;0.53;;;11.20;99.90;;;;;;5072976;28;20221;-60
2022/05/29 06:48:38;;;;;;;0.00;0.00;;;11.40;99.90;;;;;;5073106;28;20205;-60
2022/05/29 06:51:06;;;;;;;0.10;0.10;;;11.40;99.90;;;;;;5072914;28;20232;-59
2022/05/29 06:53:33;;;;;;;0.20;0.20;;;11.70;99.90;;;;;;5072858;28;20216;-60
2022/05/29 06:56:02;;;;;;;0.30;0.30;;;11.90;99.90;;;;;;5072858;28;20197;-59
2022/05/29 06:58:29;;;;;;;0.13;0.13;;;12.10;99.90;;;;;;5072749;28;20206;-59
2022/05/29 07:09:09;;;;;;;0.60;0.60;;;13.90;99.90;;;;;;5072625;28;20177;-63
2022/05/29 07:11:42;;;;;;;0.77;0.77;;;15.10;99.90;;;;;;5072689;28;20206;-60
2022/05/29 07:14:10;;;;;;;0.30;0.30;;;15.30;99.90;;;;;;5072295;28;20345;-59
2022/05/29 07:16:38;;;;;;;0.20;0.20;;;14.90;99.90;;;;;;5072651;28;20200;-60
2022/05/29 07:19:05;;;;;;;0.10;0.10;;;14.70;99.90;;;;;;5072682;28;20308;-60
2022/05/29 07:21:37;;;;;;;0.20;0.20;;;14.20;99.90;;;;;;5072496;28;20611;-60
2022/05/29 07:24:04;;;;;;;1.17;0.73;;;14.40;99.90;;;;;;5072605;28;20584;-60
2022/05/29 07:26:31;;;;;;;0.10;0.10;;;14.30;99.90;;;;;;5072368;28;20214;-60
2022/05/29 07:28:59;;;;;;;0.10;0.10;;;14.30;99.90;;;;;;5072556;28;20222;-60
2022/05/29 07:31:26;;;;;;;1.03;0.50;;;14.40;99.90;;;;;;5072487;28;20555;-60
2022/05/29 07:33:53;;;;;;;0.20;0.20;;;14.20;99.90;;;;;;5072479;28;20199;-59
2022/05/29 07:36:21;;;;;;;0.20;0.20;;;14.10;99.90;;;;;;5072368;28;20206;-59
2022/05/29 07:38:48;;;;;;;0.30;0.30;;;14.20;99.90;;;;;;5072509;28;20301;-60
2022/05/29 07:44:00;;;;;;;0.30;0.30;;;14.70;99.90;;;;;;5072319;28;20190;-60
2022/05/29 07:46:28;;;;;;;0.10;0.10;;;15.10;99.90;;;;;;5072464;28;20218;-60
2022/05/29 07:48:54;;;;;;;0.50;0.50;;;15.40;99.90;;;;;;5076118;28;20209;-59
2022/05/29 07:51:21;;;;;;;0.30;0.30;;;15.40;99.90;;;;;;5075979;28;20690;-59
2022/05/29 07:53:48;;;;;;;0.40;0.40;;;15.30;99.90;;;;;;5076329;28;20193;-59
2022/05/29 07:56:16;;;;;;;0.33;0.23;;;15.30;99.90;;;;;;5076177;28;20215;-60
2022/05/29 07:58:44;;;;;;;0.10;0.10;;;15.00;99.90;;;;;;5076142;28;20214;-59
2022/05/29 08:01:12;;;;;;;0.10;0.10;;;14.70;99.90;;;;;;5076154;28;20256;-60
2022/05/29 08:03:39;;;;;;;0.10;0.10;;;14.50;99.90;;;;;;5078036;28;20199;-60
2022/05/29 08:06:07;;;;;;;0.00;0.00;;;14.40;99.90;;;;;;5075736;28;20689;-59
2022/05/29 08:08:35;;;;;;;0.10;0.10;;;14.50;99.90;;;;;;5075758;28;20671;-59
2022/05/29 08:11:02;;;;;;;0.63;0.27;;;14.90;99.90;;;;;;5076004;28;20199;-59
2022/05/29 08:13:30;;;;;;;0.50;0.50;;;14.80;99.90;;;;;;5075591;28;20195;-59
2022/05/29 08:15:57;;;;;;;0.43;0.43;;;15.00;99.90;;;;;;5075956;28;20175;-59
2022/05/29 08:18:25;;;;;;;0.10;0.10;;;15.10;99.90;;;;;;5075867;28;20196;-59
2022/05/29 08:20:52;;;;;;;0.60;0.60;;;15.10;99.90;;;;;;5075496;28;20666;-59
2022/05/29 08:23:19;;;;;;;0.30;0.30;;;15.40;99.90;;;;;;5075720;28;20206;-60
2022/05/29 08:31:24;;;;;;;0.30;0.30;;;16.40;99.90;;;;;;5013408;28;20767;-60
2022/05/29 08:33:52;;;;;;;0.30;0.30;;;16.10;99.90;;;;;;5013293;28;20208;-60
2022/05/29 08:36:24;;;;;;;0.10;0.10;;;16.10;99.90;;;;;;5013315;28;20203;-60
2022/05/29 08:38:53;;;;;;;0.00;0.00;;;15.90;99.90;;;;;;5013318;28;20560;-60
2022/05/29 08:41:30;;;;;;;0.10;0.10;;;15.70;99.90;;;;;;5013138;28;20205;-60
2022/05/29 08:44:05;;;;;;;0.20;0.20;;;15.50;99.90;;;;;;5013082;28;20191;-60
2022/05/29 08:46:36;;;;;;;0.30;0.20;;;15.40;99.90;;;;;;5013053;28;20218;-60
2022/05/29 08:49:05;;;;;;;0.30;0.30;;;16.00;99.90;;;;;;5013139;28;20188;-59
2022/05/29 08:52:12;;;;;;;0.40;0.40;;;16.20;99.90;;;;;;5012884;28;20310;-59
2022/05/29 08:54:48;;;;;;;0.20;0.20;;;16.80;99.90;;;;;;5003389;28;20204;-59
2022/05/29 08:57:30;;;;;;;0.47;0.47;;;17.20;57.80;;;;;;5012943;28;20189;-60
2022/05/29 08:59:59;;;;;;;0.40;0.40;;;17.90;40.90;;;;;;5012077;28;20221;-60
2022/05/29 09:02:40;;;;;;;0.20;0.20;;;18.40;26.80;;;;;;5012791;28;20287;-60
2022/05/29 09:05:14;;;;;;;0.20;0.20;;;19.10;4.80;;;;;;5012698;28;20565;-60
2022/05/29 09:07:43;;;;;;;0.20;0.20;;;19.10;1.00;;;;;;5055457;28;20270;-60
2022/05/29 09:10:18;;;;;;;0.30;0.30;;;19.50;1.00;;;;;;5074575;28;20195;-61
2022/05/29 09:12:48;;;;;;;0.25;0.25;;;19.60;1.00;;;;;;5074138;28;20640;-60
2022/05/29 09:15:20;;;;;;;0.75;0.50;;;19.30;1.00;;;;;;5074010;28;20230;-60
2022/05/29 09:17:51;;;;;;;0.43;0.43;;;19.40;1.00;;;;;;5074118;28;20186;-60
2022/05/29 09:20:27;;;;;;;0.10;0.10;;;18.60;1.00;;;;;;5074475;28;20205;-60
2022/05/29 09:22:56;;;;;;;0.30;0.30;;;18.90;1.00;;;;;;5074329;28;20240;-60
2022/05/29 09:25:30;;;;;;;0.55;0.20;;;18.80;1.00;;;;;;5074130;28;20542;-60
2022/05/29 09:28:00;;;;;;;0.20;0.20;;;18.70;1.00;;;;;;5073972;28;20199;-60
2022/05/29 09:30:27;;;;;;;0.87;0.70;;;18.30;1.00;;;;;;5073900;28;20193;-60
2022/05/29 09:32:58;;;;;;;0.20;0.20;;;17.70;1.00;;;;;;5074122;28;20194;-59
2022/05/29 09:35:32;;;;;;;0.47;0.30;;;17.70;1.00;;;;;;5074065;28;20532;-59
2022/05/29 09:38:05;;;;;;;0.20;0.20;;;17.50;1.00;;;;;;5074153;28;20582;-60
2022/05/29 09:40:36;;;;;;;0.27;0.27;;;17.50;1.00;;;;;;5074190;28;20209;-60
2022/05/29 09:43:22;;;;;;;0.10;0.10;;;17.30;1.00;;;;;;5073965;28;20175;-59
2022/05/29 09:45:49;;;;;;;4.07;1.80;;;17.00;1.00;;;;;;5074148;28;20549;-59
2022/05/29 09:51:11;;;;;;;0.10;0.10;;;16.20;1.00;;;;;;5040485;28;20210;-59
2022/05/29 09:53:46;;;;;;;0.33;0.33;;;15.90;53.70;;;;;;5074122;28;20186;-59
2022/05/29 09:56:14;;;;;;;0.17;0.17;;;15.10;99.90;;;;;;5073705;28;20620;-60
2022/05/29 09:58:47;;;;;;;0.50;0.50;;;15.00;99.90;;;;;;5073649;28;20670;-60
2022/05/29 10:01:27;;;;;;;0.20;0.20;;;15.00;99.90;;;;;;5073977;28;20183;-60
2022/05/29 10:03:57;;;;;;;0.10;0.10;;;15.20;99.90;;;;;;5073904;28;20180;-59
2022/05/29 10:06:29;;;;;;;3.70;3.50;;;15.60;99.90;;;;;;5073767;28;20314;-59
2022/05/29 10:09:13;;;;;;;0.23;0.23;;;15.90;99.90;;;;;;5073415;28;20178;-60
2022/05/29 10:11:43;;;;;;;0.30;0.30;;;16.20;99.90;;;;;;5073352;28;20644;-60
2022/05/29 10:14:26;;;;;;;1.60;0.87;;;16.80;97.40;;;;;;5073145;28;20293;-60
2022/05/29 10:16:55;;;;;;;0.93;0.93;;;17.40;15.50;;;;;;5073573;28;20191;-60
2022/05/29 10:19:34;;;;;;;2.63;1.33;;;17.40;1.00;;;;;;5073546;28;20241;-60
2022/05/29 10:22:03;;;;;;;0.40;0.40;;;18.30;1.00;;;;;;5073421;28;20214;-60
2022/05/29 10:24:37;;;;;;;0.30;0.30;;;18.60;1.00;;;;;;5073595;28;20196;-61
2022/05/29 10:27:06;;;;;;;1.07;1.07;;;18.70;1.00;;;;;;5072680;28;20213;-61
2022/05/29 10:29:37;;;;;;;0.73;0.53;;;18.40;1.00;;;;;;5072711;28;20199;-60
2022/05/29 10:32:08;;;;;;;0.73;0.73;;;17.90;1.00;;;;;;5073085;28;20269;-60
2022/05/29 10:34:37;;;;;;;0.33;0.33;;;18.70;1.00;;;;;;5072980;28;20184;-60
2022/05/29 10:37:27;;;;;;;0.80;0.80;;;18.50;1.00;;;;;;5072530;28;20660;-61
2022/05/29 10:40:13;;;;;;;2.23;0.67;;;18.90;1.00;;;;;;5072765;28;20630;-60
2022/05/29 10:42:43;;;;;;;0.80;0.80;;;18.60;1.00;;;;;;5072438;28;20739;-61
2022/05/29 10:45:21;;;;;;;0.47;0.47;;;18.90;1.00;;;;;;5072859;28;20224;-60
2022/05/29 10:48:10;;;;;;;1.38;1.00;;;19.30;1.00;;;;;;5072527;28;20206;-61
2022/05/29 10:51:04;;;;;;;0.20;0.20;;;19.00;1.00;;;;;;5072164;28;20238;-61
2022/05/29 10:53:43;;;;;;;0.50;0.50;;;18.50;1.00;;;;;;5072273;28;20192;-60
2022/05/29 10:56:20;;;;;;;0.40;0.40;;;18.10;1.00;;;;;;5072555;28;20181;-61
2022/05/29 10:59:05;;;;;;;0.63;0.63;;;17.90;1.00;;;;;;5072619;28;20179;-60
2022/05/29 11:04:51;;;;;;;1.63;0.70;;;18.10;1.00;;;;;;5072417;28;20283;-60
2022/05/29 11:07:34;;;;;;;0.47;0.47;;;18.40;1.00;;;;;;5072383;28;20203;-60
2022/05/29 11:10:20;;;;;;;0.40;0.40;;;18.50;1.00;;;;;;5072096;28;20187;-60
2022/05/29 11:12:59;;;;;;;0.40;0.40;;;17.80;1.00;;;;;;5072224;28;20728;-60
2022/05/29 11:15:37;;;;;;;0.60;0.37;;;16.70;1.00;;;;;;5072275;28;20243;-60
2022/05/29 11:18:26;;;;;;;0.40;0.40;;;16.50;1.00;;;;;;5072679;28;20179;-60
2022/05/29 11:20:58;;;;;;;0.30;0.30;;;16.50;1.00;;;;;;5071385;28;20218;-60
2022/05/29 11:23:38;;;;;;;0.20;0.20;;;16.20;1.00;;;;;;5072235;28;20186;-59
2022/05/29 11:26:18;;;;;;;2.03;0.40;;;15.90;1.00;;;;;;5072371;28;20185;-60
2022/05/29 11:29:00;;;;;;;0.20;0.20;;;15.90;78.40;;;;;;5071882;28;20600;-60
2022/05/29 11:31:39;;;;;;;0.00;0.00;;;15.60;99.90;;;;;;5072508;28;20196;-61
2022/05/29 11:34:26;;;;;;;0.20;0.20;;;15.30;99.90;;;;;;5072189;28;20628;-61
2022/05/29 11:37:09;;;;;;;0.67;0.63;;;15.40;99.90;;;;;;5072149;28;20640;-62
2022/05/29 11:39:39;;;;;;;0.60;0.60;;;15.90;99.90;;;;;;5071983;28;20182;-62
2022/05/29 11:42:14;;;;;;;0.57;0.57;;;17.00;99.90;;;;;;5072420;28;20187;-62
2022/05/29 11:44:47;;;;;;;1.03;1.03;;;18.00;99.90;;;;;;5072413;28;20243;-62
2022/05/29 11:53:17;;;;;;;0.73;0.73;;;19.60;30.30;;;;;;5071487;28;20663;-62
2022/05/29 11:55:47;;;;;;;0.57;0.57;;;20.30;1.00;;;;;;5071709;28;20184;-62
2022/05/29 11:58:20;;;;;;;0.65;0.65;;;20.20;1.00;;;;;;5071603;28;20213;-61
2022/05/29 12:00:52;;;;;;;0.25;0.25;;;20.50;1.00;;;;;;5071962;28;20179;-62
2022/05/29 12:03:27;;;;;;;0.73;0.73;;;19.80;1.00;;;;;;5071974;28;20194;-62
2022/05/29 12:05:59;;;;;;;0.10;0.10;;;18.40;1.00;;;;;;5071770;28;20218;-61
2022/05/29 12:08:31;;;;;;;0.20;0.20;;;16.80;1.00;;;;;;5072112;28;20232;-62
2022/05/29 12:11:10;;;;;;;1.13;0.60;;;16.20;1.90;;;;;;5072417;28;20278;-63
2022/05/29 12:13:50;;;;;;;1.23;0.47;;;15.50;24.30;;;;;;5071342;28;20751;-61
2022/05/29 12:16:21;;;;;;;0.30;0.30;;;15.10;92.20;;;;;;5072076;28;20186;-61
2022/05/29 12:18:51;;;;;;;1.93;1.07;;;14.70;99.90;;;;;;5071938;28;20185;-61
2022/05/29 12:21:27;;;;;;;0.20;0.20;;;14.40;99.90;;;;;;5071977;28;20190;-60
2022/05/29 12:23:57;;;;;;;0.27;0.27;;;14.10;99.90;;;;;;5071552;28;20279;-61
2022/05/29 12:26:29;;;;;;;0.30;0.30;;;14.00;99.90;;;;;;5071804;28;20199;-61
2022/05/29 12:29:03;;;;;;;0.10;0.10;;;14.00;99.90;;;;;;5070642;28;20230;-61
2022/05/29 12:31:34;;;;;;;0.10;0.10;;;14.10;99.90;;;;;;5071941;28;20197;-61
2022/05/29 12:34:01;;;;;;;0.10;0.10;;;14.20;99.90;;;;;;5072998;28;20180;-60
2022/05/29 12:36:49;;;;;;;0.50;0.40;;;14.40;99.90;;;;;;5074552;28;20660;-62
2022/05/29 12:39:30;;;;;;;0.10;0.10;;;14.60;99.90;;;;;;5068140;28;20223;-60
2022/05/29 12:42:26;;;;;;;0.10;0.10;;;14.80;99.90;;;;;;5054294;28;20227;-61
2022/05/29 12:45:31;;;;;;;0.10;0.10;;;15.20;99.90;;;;;;5054512;28;20216;-60
2022/05/29 12:48:31;;;;;;;0.03;0.03;;;15.20;99.90;;;;;;5053785;28;20253;-60
2022/05/29 12:51:16;;;;;;;0.10;0.10;;;15.40;99.90;;;;;;5054461;28;20650;-61
2022/05/29 12:54:21;;;;;;;0.00;0.00;;;15.50;99.90;;;;;;5053674;28;20237;-61
2022/05/29 12:57:17;;;;;;;0.10;0.10;;;15.70;99.90;;;;;;5053841;28;20228;-61
2022/05/29 13:00:20;;;;;;;0.10;0.10;;;15.70;99.90;;;;;;5053616;28;20274;-60
2022/05/29 13:03:24;;;;;;;0.27;0.27;;;15.90;99.90;;;;;;5051881;28;20230;-59
2022/05/29 13:06:14;;;;;;;0.87;0.40;;;15.70;99.90;;;;;;5011389;28;20229;-60
2022/05/29 13:08:59;;;;;;;0.10;0.10;;;16.40;99.90;;;;;;5010821;28;20243;-60
2022/05/29 13:11:30;;;;;;;0.10;0.10;;;16.60;55.20;;;;;;5011664;28;20231;-60
2022/05/29 13:14:01;;;;;;;0.10;0.10;;;16.60;99.90;;;;;;5012262;28;20271;-60
2022/05/29 13:16:31;;;;;;;0.10;0.10;;;16.60;93.10;;;;;;5011902;28;20234;-59
2022/05/29 13:19:18;;;;;;;0.30;0.30;;;17.50;37.10;;;;;;5011483;28;20232;-60
2022/05/29 13:21:59;;;;;;;0.10;0.10;;;17.90;11.20;;;;;;5011756;28;20618;-59
2022/05/29 13:24:29;;;;;;;0.30;0.30;;;17.60;4.30;;;;;;5010224;28;20228;-60
2022/05/29 13:27:33;;;;;;;0.20;0.20;;;17.80;1.00;;;;;;5011430;28;20220;-60
2022/05/29 13:30:03;;;;;;;0.10;0.10;;;17.90;1.00;;;;;;5011425;28;20299;-60
2022/05/29 13:32:32;;;;;;;0.57;0.40;;;18.50;1.00;;;;;;5010429;28;20707;-59
2022/05/29 13:35:37;;;;;;;0.47;0.47;;;19.30;1.00;;;;;;5010784;28;20232;-60
2022/05/29 13:38:04;;;;;;;0.10;0.10;;;18.50;1.00;;;;;;5008731;28;20225;-60
2022/05/29 13:40:48;;;;;;;0.23;0.23;;;17.80;1.00;;;;;;5014150;28;20684;-60
2022/05/29 13:43:38;;;;;;;0.13;0.13;;;16.60;12.80;;;;;;5052591;28;20876;-60
2022/05/29 13:46:16;;;;;;;0.30;0.30;;;15.50;99.90;;;;;;5052553;28;20293;-60
2022/05/29 13:49:01;;;;;;;0.33;0.33;;;14.90;99.90;;;;;;5052866;28;20329;-59
2022/05/29 13:51:35;;;;;;;0.00;0.00;;;14.30;99.90;;;;;;5052641;28;20689;-59
2022/05/29 13:54:05;;;;;;;0.10;0.10;;;14.20;99.90;;;;;;5052598;28;20692;-59
2022/05/29 13:57:01;;;;;;;0.00;0.00;;;14.20;99.90;;;;;;5052680;28;20289;-59